Arock, OR

6:23 AM MDT on August 30, 2014 (GMT -0600)
Rome State | Change Station
CLOSE
Current Station
Airport
Location: Rome,
Elevation: 4049 ft
Nearby Weather Stations

Elev 4049 ft 42.59 °N, 117.86 °W | Updated 31 minutes ago

Partly Cloudy
Partly Cloudy
65 °F
Feels Like 65 °F
N
8
Wind Variable Wind from ENE
Gusts 7 mph

Today
High -- | Low -- °F
--% Chance of Precip.
Yesterday
High -- | Low -- °F
Precip. -- in
7:12 AM 8:27 PM
Waxing Crescent, 21% visible
Pressure 29.83 in
Visibility -9999.0 miles
Clouds
Dew Point 40 °F
Humidity 40%
Rainfall 0.00 in
Snow Depth Not available.
UV Not available.
Pollen 7.90 out of 12
Air Quality Not available.
Flu Activity Not available.
METAR KREO 301152Z AUTO 06007KT 18/04 A2996 RMK AO1 SLP100 T01830044 10228 20178 53008

More Conditions Fewer Conditions

Pressure 29.83 in
Visibility -9999.0 miles
Clouds
Dew Point 40 °F
Humidity 40%
Rainfall 0.00 in
Snow Depth Not available.
UV Not available.
Pollen 7.90 out of 12
Air Quality Not available.
Flu Activity Not available.
METAR KREO 301152Z AUTO 06007KT 18/04 A2996 RMK AO1 SLP100 T01830044 10228 20178 53008

More Conditions Fewer Conditions

10-Day Weather Forecast

Almanac

Astronomy

Aug. 30, 2014 Rise Set
Actual Time 7:12 AM MDT 8:27 PM MDT
Civil Twilight 6:43 AM MDT 8:57 PM MDT
Nautical Twilight 6:07 AM MDT 9:32 PM MDT
Astronomical Twilight 5:30 AM MDT 10:09 PM MDT
Moon 12:12 PM MDT 10:56 PM MDT
Length of Visible Light 14h 13m
Length of Day
13h 15m
Tomorrow will be 2m 47s shorter.
Waxing Crescent, 21% of the Moon is Illuminated
Today
Waxing Crescent
Sep 2
First Quarter
Sep 8
Full
Sep 15
Last Quarter
Sep 24
New

Today's Extremes

State Highs State Lows

Community

WunderPhotos

Upload Photos

1,748,500 photos uploaded!

WunderBlogs® & News

By Dr. Jeff Masters
Director of Meteorology, Weather Underground
By Kari Strenfel
Meteorologist, Weather Underground
By Christopher C. Burt
Weather Historian, Weather Underground
August 30, 2014
August 30, 2014
August 30, 2014

Nearby

Snow Depth

Station Depth Elevation
Fish Creek 0 in 7900 ft
Rock Springs 0 in 5550 ft
Blue Mountain Spring 0 in 5900 ft
Starr Ridge 0 in 5300 ft
Snow Mountain 0 in 6220 ft

Earthquake Activity

City Distance Mag. Time & Date
No recent earthquake activity has been reported nearby.
Minimum magnitude displayed is 2.5.

Coastal Water Temperatures

Place Temperature
No Stations Reporting

Nearby Weather Stations